sensor_id;sensor_type;location;lat;lon;timestamp;P1;durP1;ratioP1;P2;durP2;ratioP2
44046;SDS011;29713;-33.888;151.150;2023-02-28T00:01:13;3.60;;;1.13;;
44046;SDS011;29713;-33.888;151.150;2023-02-28T00:03:41;3.83;;;1.08;;
44046;SDS011;29713;-33.888;151.150;2023-02-28T00:06:08;6.97;;;1.55;;
44046;SDS011;29713;-33.888;151.150;2023-02-28T00:08:36;6.93;;;1.30;;
44046;SDS011;29713;-33.888;151.150;2023-02-28T00:11:05;4.05;;;1.30;;
44046;SDS011;29713;-33.888;151.150;2023-02-28T00:13:35;6.35;;;1.33;;
44046;SDS011;29713;-33.888;151.150;2023-02-28T00:16:08;3.83;;;1.30;;
44046;SDS011;29713;-33.888;151.150;2023-02-28T00:18:38;4.15;;;1.40;;
44046;SDS011;29713;-33.888;151.150;2023-02-28T00:21:07;5.88;;;1.13;;
44046;SDS011;29713;-33.888;151.150;2023-02-28T00:23:37;4.45;;;1.23;;
44046;SDS011;29713;-33.888;151.150;2023-02-28T00:26:05;9.57;;;1.70;;
44046;SDS011;29713;-33.888;151.150;2023-02-28T00:28:35;3.60;;;1.02;;
44046;SDS011;29713;-33.888;151.150;2023-02-28T00:31:02;2.38;;;1.10;;
44046;SDS011;29713;-33.888;151.150;2023-02-28T00:33:30;8.85;;;1.38;;
44046;SDS011;29713;-33.888;151.150;2023-02-28T00:36:01;5.13;;;1.42;;
44046;SDS011;29713;-33.888;151.150;2023-02-28T00:38:31;4.75;;;1.23;;
44046;SDS011;29713;-33.888;151.150;2023-02-28T00:40:58;3.75;;;1.20;;
44046;SDS011;29713;-33.888;151.150;2023-02-28T00:43:30;6.72;;;1.80;;
44046;SDS011;29713;-33.888;151.150;2023-02-28T00:45:58;6.57;;;1.23;;
44046;SDS011;29713;-33.888;151.150;2023-02-28T00:48:26;5.50;;;1.55;;
44046;SDS011;29713;-33.888;151.150;2023-02-28T00:50:53;5.68;;;1.35;;
44046;SDS011;29713;-33.888;151.150;2023-02-28T00:53:21;5.15;;;1.40;;
44046;SDS011;29713;-33.888;151.150;2023-02-28T00:55:49;1.85;;;0.80;;
44046;SDS011;29713;-33.888;151.150;2023-02-28T00:58:16;3.60;;;1.40;;
44046;SDS011;29713;-33.888;151.150;2023-02-28T01:00:44;4.60;;;1.30;;
44046;SDS011;29713;-33.888;151.150;2023-02-28T01:03:15;4.57;;;1.20;;
44046;SDS011;29713;-33.888;151.150;2023-02-28T01:05:44;8.07;;;1.65;;
44046;SDS011;29713;-33.888;151.150;2023-02-28T01:08:12;5.80;;;1.67;;
44046;SDS011;29713;-33.888;151.150;2023-02-28T01:10:39;4.65;;;1.27;;
44046;SDS011;29713;-33.888;151.150;2023-02-28T01:13:10;5.95;;;1.83;;
44046;SDS011;29713;-33.888;151.150;2023-02-28T01:15:39;3.78;;;1.10;;
44046;SDS011;29713;-33.888;151.150;2023-02-28T01:18:12;3.28;;;1.20;;
44046;SDS011;29713;-33.888;151.150;2023-02-28T01:20:39;5.80;;;1.00;;
44046;SDS011;29713;-33.888;151.150;2023-02-28T01:23:06;5.32;;;1.45;;
44046;SDS011;29713;-33.888;151.150;2023-02-28T01:25:35;6.40;;;1.60;;
44046;SDS011;29713;-33.888;151.150;2023-02-28T01:28:02;7.65;;;1.98;;
44046;SDS011;29713;-33.888;151.150;2023-02-28T01:30:31;5.07;;;1.30;;
44046;SDS011;29713;-33.888;151.150;2023-02-28T01:33:01;4.80;;;1.20;;
44046;SDS011;29713;-33.888;151.150;2023-02-28T01:35:34;5.22;;;1.40;;
44046;SDS011;29713;-33.888;151.150;2023-02-28T01:38:03;5.65;;;1.15;;
44046;SDS011;29713;-33.888;151.150;2023-02-28T01:40:31;5.10;;;1.35;;
44046;SDS011;29713;-33.888;151.150;2023-02-28T01:42:58;5.38;;;1.27;;
44046;SDS011;29713;-33.888;151.150;2023-02-28T01:45:27;4.15;;;1.20;;
44046;SDS011;29713;-33.888;151.150;2023-02-28T01:48:00;5.57;;;2.00;;
44046;SDS011;29713;-33.888;151.150;2023-02-28T01:50:34;5.10;;;1.30;;
44046;SDS011;29713;-33.888;151.150;2023-02-28T01:53:06;7.28;;;1.50;;
44046;SDS011;29713;-33.888;151.150;2023-02-28T01:55:36;5.22;;;1.60;;
44046;SDS011;29713;-33.888;151.150;2023-02-28T01:58:05;2.47;;;1.00;;
44046;SDS011;29713;-33.888;151.150;2023-02-28T02:00:35;4.82;;;1.42;;
44046;SDS011;29713;-33.888;151.150;2023-02-28T02:03:08;5.75;;;1.60;;
44046;SDS011;29713;-33.888;151.150;2023-02-28T02:05:41;4.38;;;1.30;;
44046;SDS011;29713;-33.888;151.150;2023-02-28T02:08:15;6.18;;;1.52;;
44046;SDS011;29713;-33.888;151.150;2023-02-28T02:10:49;3.45;;;1.30;;
44046;SDS011;29713;-33.888;151.150;2023-02-28T02:25:27;3.58;;;1.38;;
44046;SDS011;29713;-33.888;151.150;2023-02-28T02:31:06;4.88;;;1.50;;
44046;SDS011;29713;-33.888;151.150;2023-02-28T02:36:38;2.60;;;1.35;;
44046;SDS011;29713;-33.888;151.150;2023-02-28T02:39:40;2.22;;;1.10;;
44046;SDS011;29713;-33.888;151.150;2023-02-28T02:42:15;4.82;;;1.30;;
44046;SDS011;29713;-33.888;151.150;2023-02-28T02:44:51;6.93;;;1.40;;
44046;SDS011;29713;-33.888;151.150;2023-02-28T02:47:34;3.78;;;1.17;;
44046;SDS011;29713;-33.888;151.150;2023-02-28T02:50:05;4.93;;;1.45;;
44046;SDS011;29713;-33.888;151.150;2023-02-28T02:52:38;4.95;;;1.25;;
44046;SDS011;29713;-33.888;151.150;2023-02-28T02:55:09;3.60;;;1.45;;
44046;SDS011;29713;-33.888;151.150;2023-02-28T02:58:02;3.78;;;1.13;;
44046;SDS011;29713;-33.888;151.150;2023-02-28T03:00:41;2.60;;;1.30;;
44046;SDS011;29713;-33.888;151.150;2023-02-28T03:03:13;7.43;;;1.33;;
44046;SDS011;29713;-33.888;151.150;2023-02-28T03:08:12;3.40;;;1.35;;
44046;SDS011;29713;-33.888;151.150;2023-02-28T03:10:43;6.30;;;1.40;;
44046;SDS011;29713;-33.888;151.150;2023-02-28T03:26:58;6.32;;;1.10;;
44046;SDS011;29713;-33.888;151.150;2023-02-28T03:29:39;5.78;;;1.38;;
44046;SDS011;29713;-33.888;151.150;2023-02-28T03:34:49;3.45;;;1.17;;
44046;SDS011;29713;-33.888;151.150;2023-02-28T03:37:40;6.90;;;1.00;;
44046;SDS011;29713;-33.888;151.150;2023-02-28T03:40:11;3.60;;;1.10;;
44046;SDS011;29713;-33.888;151.150;2023-02-28T03:42:46;3.78;;;1.40;;
44046;SDS011;29713;-33.888;151.150;2023-02-28T03:45:19;3.65;;;1.02;;
44046;SDS011;29713;-33.888;151.150;2023-02-28T03:47:56;3.22;;;0.90;;
44046;SDS011;29713;-33.888;151.150;2023-02-28T03:50:48;4.47;;;1.25;;
44046;SDS011;29713;-33.888;151.150;2023-02-28T03:53:30;1.95;;;0.98;;
44046;SDS011;29713;-33.888;151.150;2023-02-28T04:02:01;4.88;;;1.20;;
44046;SDS011;29713;-33.888;151.150;2023-02-28T04:04:32;3.15;;;0.90;;
44046;SDS011;29713;-33.888;151.150;2023-02-28T04:07:01;2.47;;;1.05;;
44046;SDS011;29713;-33.888;151.150;2023-02-28T04:09:31;5.38;;;0.98;;
44046;SDS011;29713;-33.888;151.150;2023-02-28T04:11:58;4.55;;;1.25;;
44046;SDS011;29713;-33.888;151.150;2023-02-28T04:14:26;3.75;;;1.15;;
44046;SDS011;29713;-33.888;151.150;2023-02-28T04:16:53;3.80;;;0.90;;
44046;SDS011;29713;-33.888;151.150;2023-02-28T04:19:20;7.22;;;1.00;;
44046;SDS011;29713;-33.888;151.150;2023-02-28T04:21:49;2.30;;;0.90;;
44046;SDS011;29713;-33.888;151.150;2023-02-28T04:24:21;3.15;;;0.80;;
44046;SDS011;29713;-33.888;151.150;2023-02-28T04:26:51;3.25;;;0.68;;
44046;SDS011;29713;-33.888;151.150;2023-02-28T04:29:22;2.80;;;0.95;;
44046;SDS011;29713;-33.888;151.150;2023-02-28T04:31:50;4.65;;;1.23;;
44046;SDS011;29713;-33.888;151.150;2023-02-28T04:34:25;6.20;;;0.80;;
44046;SDS011;29713;-33.888;151.150;2023-02-28T04:36:54;4.65;;;0.85;;
44046;SDS011;29713;-33.888;151.150;2023-02-28T04:39:22;4.00;;;1.05;;
44046;SDS011;29713;-33.888;151.150;2023-02-28T04:41:50;4.03;;;1.15;;
44046;SDS011;29713;-33.888;151.150;2023-02-28T04:44:17;2.67;;;0.90;;
44046;SDS011;29713;-33.888;151.150;2023-02-28T04:46:47;5.43;;;0.77;;
44046;SDS011;29713;-33.888;151.150;2023-02-28T04:49:15;2.25;;;0.90;;
44046;SDS011;29713;-33.888;151.150;2023-02-28T04:51:49;2.88;;;1.08;;
44046;SDS011;29713;-33.888;151.150;2023-02-28T04:54:19;4.68;;;1.30;;
44046;SDS011;29713;-33.888;151.150;2023-02-28T04:56:46;5.13;;;0.93;;
44046;SDS011;29713;-33.888;151.150;2023-02-28T04:59:15;6.63;;;0.90;;
44046;SDS011;29713;-33.888;151.150;2023-02-28T05:01:45;5.10;;;1.45;;
44046;SDS011;29713;-33.888;151.150;2023-02-28T05:04:14;3.60;;;1.00;;
44046;SDS011;29713;-33.888;151.150;2023-02-28T05:06:42;2.58;;;1.02;;
44046;SDS011;29713;-33.888;151.150;2023-02-28T05:09:10;2.72;;;1.10;;
44046;SDS011;29713;-33.888;151.150;2023-02-28T05:11:37;2.83;;;0.82;;
44046;SDS011;29713;-33.888;151.150;2023-02-28T05:14:06;3.90;;;1.10;;
44046;SDS011;29713;-33.888;151.150;2023-02-28T05:16:37;2.60;;;1.10;;
44046;SDS011;29713;-33.888;151.150;2023-02-28T05:19:05;3.08;;;1.20;;
44046;SDS011;29713;-33.888;151.150;2023-02-28T05:21:33;2.75;;;0.90;;
44046;SDS011;29713;-33.888;151.150;2023-02-28T05:24:07;2.88;;;1.00;;
44046;SDS011;29713;-33.888;151.150;2023-02-28T05:26:37;1.88;;;0.80;;
44046;SDS011;29713;-33.888;151.150;2023-02-28T05:29:07;3.33;;;1.02;;
44046;SDS011;29713;-33.888;151.150;2023-02-28T05:31:35;4.85;;;1.02;;
44046;SDS011;29713;-33.888;151.150;2023-02-28T05:34:03;2.22;;;1.10;;
44046;SDS011;29713;-33.888;151.150;2023-02-28T05:36:31;4.85;;;1.15;;
44046;SDS011;29713;-33.888;151.150;2023-02-28T05:38:58;3.22;;;1.17;;
44046;SDS011;29713;-33.888;151.150;2023-02-28T05:41:26;2.70;;;1.15;;
44046;SDS011;29713;-33.888;151.150;2023-02-28T05:43:53;4.32;;;1.30;;
44046;SDS011;29713;-33.888;151.150;2023-02-28T05:46:20;3.38;;;0.90;;
44046;SDS011;29713;-33.888;151.150;2023-02-28T05:48:48;3.50;;;1.17;;
44046;SDS011;29713;-33.888;151.150;2023-02-28T05:51:16;4.43;;;1.23;;
44046;SDS011;29713;-33.888;151.150;2023-02-28T05:53:46;6.38;;;1.00;;
44046;SDS011;29713;-33.888;151.150;2023-02-28T05:56:14;4.28;;;1.10;;
44046;SDS011;29713;-33.888;151.150;2023-02-28T05:58:42;4.72;;;1.20;;
44046;SDS011;29713;-33.888;151.150;2023-02-28T06:01:23;3.38;;;1.02;;
44046;SDS011;29713;-33.888;151.150;2023-02-28T06:04:01;3.83;;;1.10;;
44046;SDS011;29713;-33.888;151.150;2023-02-28T06:06:30;3.30;;;1.10;;
44046;SDS011;29713;-33.888;151.150;2023-02-28T06:09:00;6.75;;;1.20;;
44046;SDS011;29713;-33.888;151.150;2023-02-28T06:11:27;3.53;;;1.10;;
44046;SDS011;29713;-33.888;151.150;2023-02-28T06:13:55;5.65;;;1.45;;
44046;SDS011;29713;-33.888;151.150;2023-02-28T06:16:25;4.22;;;1.08;;
44046;SDS011;29713;-33.888;151.150;2023-02-28T06:18:54;4.25;;;1.10;;
44046;SDS011;29713;-33.888;151.150;2023-02-28T06:21:23;6.05;;;1.30;;
44046;SDS011;29713;-33.888;151.150;2023-02-28T06:23:50;4.28;;;1.52;;
44046;SDS011;29713;-33.888;151.150;2023-02-28T06:26:18;3.13;;;1.13;;
44046;SDS011;29713;-33.888;151.150;2023-02-28T06:28:46;3.78;;;1.08;;
44046;SDS011;29713;-33.888;151.150;2023-02-28T06:31:14;6.25;;;1.25;;
44046;SDS011;29713;-33.888;151.150;2023-02-28T06:33:43;10.70;;;1.58;;
44046;SDS011;29713;-33.888;151.150;2023-02-28T06:36:13;4.82;;;1.48;;
44046;SDS011;29713;-33.888;151.150;2023-02-28T06:38:41;5.15;;;1.17;;
44046;SDS011;29713;-33.888;151.150;2023-02-28T06:41:09;3.92;;;1.50;;
44046;SDS011;29713;-33.888;151.150;2023-02-28T06:43:39;4.30;;;1.38;;
44046;SDS011;29713;-33.888;151.150;2023-02-28T06:46:10;4.70;;;1.50;;
44046;SDS011;29713;-33.888;151.150;2023-02-28T06:48:39;4.70;;;1.60;;
44046;SDS011;29713;-33.888;151.150;2023-02-28T06:51:09;3.88;;;1.45;;
44046;SDS011;29713;-33.888;151.150;2023-02-28T06:53:39;4.05;;;1.30;;
44046;SDS011;29713;-33.888;151.150;2023-02-28T06:56:08;13.25;;;4.15;;
44046;SDS011;29713;-33.888;151.150;2023-02-28T06:58:37;9.90;;;2.78;;
44046;SDS011;29713;-33.888;151.150;2023-02-28T07:01:06;7.88;;;2.22;;
44046;SDS011;29713;-33.888;151.150;2023-02-28T07:03:36;8.15;;;2.83;;
44046;SDS011;29713;-33.888;151.150;2023-02-28T07:06:04;6.32;;;2.40;;
44046;SDS011;29713;-33.888;151.150;2023-02-28T07:08:32;6.30;;;1.67;;
44046;SDS011;29713;-33.888;151.150;2023-02-28T07:11:01;6.30;;;1.65;;
44046;SDS011;29713;-33.888;151.150;2023-02-28T07:13:29;6.43;;;1.80;;
44046;SDS011;29713;-33.888;151.150;2023-02-28T07:15:57;5.68;;;1.58;;
44046;SDS011;29713;-33.888;151.150;2023-02-28T07:18:26;4.60;;;1.63;;
44046;SDS011;29713;-33.888;151.150;2023-02-28T07:20:53;6.95;;;1.75;;
44046;SDS011;29713;-33.888;151.150;2023-02-28T07:23:25;8.30;;;1.67;;
44046;SDS011;29713;-33.888;151.150;2023-02-28T07:25:53;1.83;;;1.05;;
44046;SDS011;29713;-33.888;151.150;2023-02-28T07:28:20;4.88;;;1.30;;
44046;SDS011;29713;-33.888;151.150;2023-02-28T07:30:47;5.47;;;1.65;;
44046;SDS011;29713;-33.888;151.150;2023-02-28T07:33:15;2.85;;;1.23;;
44046;SDS011;29713;-33.888;151.150;2023-02-28T07:35:44;6.85;;;1.42;;
44046;SDS011;29713;-33.888;151.150;2023-02-28T07:38:11;8.25;;;1.27;;
44046;SDS011;29713;-33.888;151.150;2023-02-28T07:40:39;2.88;;;1.55;;
44046;SDS011;29713;-33.888;151.150;2023-02-28T07:43:06;5.45;;;1.60;;
44046;SDS011;29713;-33.888;151.150;2023-02-28T07:45:34;3.47;;;1.38;;
44046;SDS011;29713;-33.888;151.150;2023-02-28T07:48:01;4.40;;;1.30;;
44046;SDS011;29713;-33.888;151.150;2023-02-28T07:50:29;5.28;;;1.48;;
44046;SDS011;29713;-33.888;151.150;2023-02-28T07:52:57;5.47;;;1.40;;
44046;SDS011;29713;-33.888;151.150;2023-02-28T07:55:25;5.70;;;1.70;;
44046;SDS011;29713;-33.888;151.150;2023-02-28T07:57:52;5.90;;;1.73;;
44046;SDS011;29713;-33.888;151.150;2023-02-28T08:00:20;6.28;;;1.92;;
44046;SDS011;29713;-33.888;151.150;2023-02-28T08:02:48;5.10;;;1.38;;
44046;SDS011;29713;-33.888;151.150;2023-02-28T08:05:16;4.63;;;1.98;;
44046;SDS011;29713;-33.888;151.150;2023-02-28T08:07:43;7.25;;;1.98;;
44046;SDS011;29713;-33.888;151.150;2023-02-28T08:10:13;4.45;;;1.50;;
44046;SDS011;29713;-33.888;151.150;2023-02-28T08:12:40;8.23;;;2.08;;
44046;SDS011;29713;-33.888;151.150;2023-02-28T08:15:13;6.93;;;2.10;;
44046;SDS011;29713;-33.888;151.150;2023-02-28T08:17:41;4.82;;;1.80;;
44046;SDS011;29713;-33.888;151.150;2023-02-28T08:20:08;7.10;;;1.60;;
44046;SDS011;29713;-33.888;151.150;2023-02-28T08:22:36;9.45;;;1.98;;
44046;SDS011;29713;-33.888;151.150;2023-02-28T08:25:03;8.65;;;1.80;;
44046;SDS011;29713;-33.888;151.150;2023-02-28T08:27:32;4.32;;;1.45;;
44046;SDS011;29713;-33.888;151.150;2023-02-28T08:30:00;5.97;;;1.50;;
44046;SDS011;29713;-33.888;151.150;2023-02-28T08:32:28;9.05;;;1.98;;
44046;SDS011;29713;-33.888;151.150;2023-02-28T08:34:55;6.53;;;1.70;;
44046;SDS011;29713;-33.888;151.150;2023-02-28T08:37:23;5.88;;;1.85;;
44046;SDS011;29713;-33.888;151.150;2023-02-28T08:39:51;6.63;;;1.83;;
44046;SDS011;29713;-33.888;151.150;2023-02-28T08:42:18;5.38;;;1.77;;
44046;SDS011;29713;-33.888;151.150;2023-02-28T08:44:45;6.35;;;1.90;;
44046;SDS011;29713;-33.888;151.150;2023-02-28T08:47:13;7.55;;;1.80;;
44046;SDS011;29713;-33.888;151.150;2023-02-28T08:49:40;4.32;;;1.80;;
44046;SDS011;29713;-33.888;151.150;2023-02-28T08:52:07;9.20;;;2.33;;
44046;SDS011;29713;-33.888;151.150;2023-02-28T08:54:35;7.65;;;2.10;;
44046;SDS011;29713;-33.888;151.150;2023-02-28T08:57:03;5.53;;;1.92;;
44046;SDS011;29713;-33.888;151.150;2023-02-28T08:59:30;10.32;;;2.50;;
44046;SDS011;29713;-33.888;151.150;2023-02-28T09:01:58;7.38;;;2.05;;
44046;SDS011;29713;-33.888;151.150;2023-02-28T09:04:25;6.82;;;1.80;;
44046;SDS011;29713;-33.888;151.150;2023-02-28T09:06:56;3.60;;;1.80;;
44046;SDS011;29713;-33.888;151.150;2023-02-28T09:09:23;4.22;;;1.95;;
44046;SDS011;29713;-33.888;151.150;2023-02-28T09:11:50;4.28;;;1.73;;
44046;SDS011;29713;-33.888;151.150;2023-02-28T09:14:18;7.95;;;2.20;;
44046;SDS011;29713;-33.888;151.150;2023-02-28T09:16:45;6.25;;;2.15;;
44046;SDS011;29713;-33.888;151.150;2023-02-28T09:19:12;3.92;;;1.90;;
44046;SDS011;29713;-33.888;151.150;2023-02-28T09:21:40;8.65;;;1.92;;
44046;SDS011;29713;-33.888;151.150;2023-02-28T09:24:07;5.70;;;2.20;;
44046;SDS011;29713;-33.888;151.150;2023-02-28T09:26:37;5.13;;;1.67;;
44046;SDS011;29713;-33.888;151.150;2023-02-28T09:29:07;8.50;;;2.10;;
44046;SDS011;29713;-33.888;151.150;2023-02-28T09:31:35;9.60;;;2.20;;
44046;SDS011;29713;-33.888;151.150;2023-02-28T09:34:03;7.25;;;2.28;;
44046;SDS011;29713;-33.888;151.150;2023-02-28T09:36:33;6.55;;;2.08;;
44046;SDS011;29713;-33.888;151.150;2023-02-28T09:39:02;8.02;;;2.47;;
44046;SDS011;29713;-33.888;151.150;2023-02-28T09:41:39;6.57;;;2.00;;
44046;SDS011;29713;-33.888;151.150;2023-02-28T09:44:20;4.10;;;1.80;;
44046;SDS011;29713;-33.888;151.150;2023-02-28T09:46:57;7.90;;;2.05;;
44046;SDS011;29713;-33.888;151.150;2023-02-28T09:49:51;5.57;;;1.95;;
44046;SDS011;29713;-33.888;151.150;2023-02-28T09:52:25;5.10;;;2.30;;
44046;SDS011;29713;-33.888;151.150;2023-02-28T09:54:58;3.58;;;1.65;;
44046;SDS011;29713;-33.888;151.150;2023-02-28T09:57:46;7.65;;;2.17;;
44046;SDS011;29713;-33.888;151.150;2023-02-28T10:00:18;8.25;;;2.70;;
44046;SDS011;29713;-33.888;151.150;2023-02-28T10:05:37;7.18;;;2.47;;
44046;SDS011;29713;-33.888;151.150;2023-02-28T10:09:10;7.38;;;2.10;;
44046;SDS011;29713;-33.888;151.150;2023-02-28T10:11:16;5.13;;;2.28;;
44046;SDS011;29713;-33.888;151.150;2023-02-28T10:19:16;3.63;;;1.80;;
44046;SDS011;29713;-33.888;151.150;2023-02-28T10:24:44;7.53;;;2.67;;
44046;SDS011;29713;-33.888;151.150;2023-02-28T10:27:15;7.05;;;2.25;;
44046;SDS011;29713;-33.888;151.150;2023-02-28T10:29:48;4.75;;;2.10;;
44046;SDS011;29713;-33.888;151.150;2023-02-28T10:32:21;4.50;;;1.95;;
44046;SDS011;29713;-33.888;151.150;2023-02-28T10:37:40;5.75;;;2.10;;
44046;SDS011;29713;-33.888;151.150;2023-02-28T10:42:58;7.13;;;2.10;;
44046;SDS011;29713;-33.888;151.150;2023-02-28T10:45:32;6.57;;;2.10;;
44046;SDS011;29713;-33.888;151.150;2023-02-28T10:50:44;6.38;;;2.15;;
44046;SDS011;29713;-33.888;151.150;2023-02-28T11:04:20;4.22;;;2.30;;
44046;SDS011;29713;-33.888;151.150;2023-02-28T11:09:36;5.60;;;1.85;;
44046;SDS011;29713;-33.888;151.150;2023-02-28T11:12:06;6.50;;;2.50;;
44046;SDS011;29713;-33.888;151.150;2023-02-28T11:14:48;9.02;;;2.65;;
44046;SDS011;29713;-33.888;151.150;2023-02-28T11:17:28;7.00;;;2.78;;
44046;SDS011;29713;-33.888;151.150;2023-02-28T11:20:04;4.82;;;2.10;;
44046;SDS011;29713;-33.888;151.150;2023-02-28T11:22:35;8.88;;;2.28;;
44046;SDS011;29713;-33.888;151.150;2023-02-28T11:25:21;7.50;;;2.92;;
44046;SDS011;29713;-33.888;151.150;2023-02-28T11:27:57;6.38;;;2.10;;
44046;SDS011;29713;-33.888;151.150;2023-02-28T11:30:33;8.20;;;2.30;;
44046;SDS011;29713;-33.888;151.150;2023-02-28T11:36:00;9.13;;;2.50;;
44046;SDS011;29713;-33.888;151.150;2023-02-28T11:38:34;15.25;;;3.08;;
44046;SDS011;29713;-33.888;151.150;2023-02-28T11:41:05;6.70;;;2.58;;
44046;SDS011;29713;-33.888;151.150;2023-02-28T11:44:38;4.80;;;2.53;;
44046;SDS011;29713;-33.888;151.150;2023-02-28T11:46:54;5.32;;;2.38;;
44046;SDS011;29713;-33.888;151.150;2023-02-28T12:05:33;14.40;;;2.90;;
44046;SDS011;29713;-33.888;151.150;2023-02-28T12:25:02;7.47;;;2.97;;
44046;SDS011;29713;-33.888;151.150;2023-02-28T12:27:41;5.25;;;2.40;;
44046;SDS011;29713;-33.888;151.150;2023-02-28T12:32:55;7.05;;;2.50;;
44046;SDS011;29713;-33.888;151.150;2023-02-28T12:35:38;5.38;;;2.53;;
44046;SDS011;29713;-33.888;151.150;2023-02-28T12:40:52;5.03;;;2.42;;
44046;SDS011;29713;-33.888;151.150;2023-02-28T12:43:24;7.32;;;2.60;;
44046;SDS011;29713;-33.888;151.150;2023-02-28T12:46:00;6.45;;;2.75;;
44046;SDS011;29713;-33.888;151.150;2023-02-28T12:49:05;9.48;;;2.85;;
44046;SDS011;29713;-33.888;151.150;2023-02-28T12:51:57;9.30;;;2.97;;
44046;SDS011;29713;-33.888;151.150;2023-02-28T13:13:20;6.97;;;2.67;;
44046;SDS011;29713;-33.888;151.150;2023-02-28T13:15:59;7.78;;;2.92;;
44046;SDS011;29713;-33.888;151.150;2023-02-28T13:34:33;6.47;;;2.85;;
44046;SDS011;29713;-33.888;151.150;2023-02-28T13:50:19;7.28;;;2.83;;
44046;SDS011;29713;-33.888;151.150;2023-02-28T14:03:39;7.53;;;2.47;;
44046;SDS011;29713;-33.888;151.150;2023-02-28T14:06:18;9.80;;;2.92;;
44046;SDS011;29713;-33.888;151.150;2023-02-28T14:09:16;5.85;;;2.90;;
44046;SDS011;29713;-33.888;151.150;2023-02-28T14:11:49;11.38;;;3.25;;
44046;SDS011;29713;-33.888;151.150;2023-02-28T14:17:05;6.18;;;2.80;;
44046;SDS011;29713;-33.888;151.150;2023-02-28T14:19:43;4.75;;;2.13;;
44046;SDS011;29713;-33.888;151.150;2023-02-28T14:22:32;15.93;;;2.80;;
44046;SDS011;29713;-33.888;151.150;2023-02-28T14:25:30;8.13;;;2.53;;
44046;SDS011;29713;-33.888;151.150;2023-02-28T14:36:43;8.63;;;2.58;;
44046;SDS011;29713;-33.888;151.150;2023-02-28T14:39:15;8.65;;;2.80;;
44046;SDS011;29713;-33.888;151.150;2023-02-28T14:41:46;8.50;;;2.53;;
44046;SDS011;29713;-33.888;151.150;2023-02-28T14:44:18;8.52;;;3.03;;
44046;SDS011;29713;-33.888;151.150;2023-02-28T14:46:57;6.28;;;2.30;;
44046;SDS011;29713;-33.888;151.150;2023-02-28T14:49:35;8.00;;;2.70;;
44046;SDS011;29713;-33.888;151.150;2023-02-28T14:52:20;7.55;;;2.40;;
44046;SDS011;29713;-33.888;151.150;2023-02-28T14:54:53;9.85;;;2.60;;
44046;SDS011;29713;-33.888;151.150;2023-02-28T15:02:43;13.73;;;2.83;;
44046;SDS011;29713;-33.888;151.150;2023-02-28T15:07:44;5.80;;;2.40;;
44046;SDS011;29713;-33.888;151.150;2023-02-28T15:10:23;8.13;;;2.75;;
44046;SDS011;29713;-33.888;151.150;2023-02-28T15:12:56;10.07;;;2.88;;
44046;SDS011;29713;-33.888;151.150;2023-02-28T15:15:50;9.65;;;2.95;;
44046;SDS011;29713;-33.888;151.150;2023-02-28T15:21:04;10.27;;;2.72;;
44046;SDS011;29713;-33.888;151.150;2023-02-28T15:26:33;9.73;;;2.63;;
44046;SDS011;29713;-33.888;151.150;2023-02-28T15:29:06;7.47;;;2.78;;
44046;SDS011;29713;-33.888;151.150;2023-02-28T15:31:46;8.27;;;2.70;;
44046;SDS011;29713;-33.888;151.150;2023-02-28T15:34:19;6.35;;;2.90;;
44046;SDS011;29713;-33.888;151.150;2023-02-28T15:39:53;9.40;;;2.60;;
44046;SDS011;29713;-33.888;151.150;2023-02-28T15:42:22;8.40;;;2.78;;
44046;SDS011;29713;-33.888;151.150;2023-02-28T15:44:55;11.43;;;2.85;;
44046;SDS011;29713;-33.888;151.150;2023-02-28T15:47:26;7.30;;;2.53;;
44046;SDS011;29713;-33.888;151.150;2023-02-28T15:49:56;10.73;;;2.75;;
44046;SDS011;29713;-33.888;151.150;2023-02-28T15:52:39;9.07;;;2.70;;
44046;SDS011;29713;-33.888;151.150;2023-02-28T15:55:27;10.00;;;2.80;;
44046;SDS011;29713;-33.888;151.150;2023-02-28T15:57:58;6.55;;;2.85;;
44046;SDS011;29713;-33.888;151.150;2023-02-28T16:00:28;7.90;;;2.83;;
44046;SDS011;29713;-33.888;151.150;2023-02-28T16:02:59;9.23;;;2.85;;
44046;SDS011;29713;-33.888;151.150;2023-02-28T16:05:28;7.80;;;2.92;;
44046;SDS011;29713;-33.888;151.150;2023-02-28T16:08:01;11.52;;;2.90;;
44046;SDS011;29713;-33.888;151.150;2023-02-28T16:10:41;9.38;;;2.55;;
44046;SDS011;29713;-33.888;151.150;2023-02-28T16:13:08;5.68;;;2.63;;
44046;SDS011;29713;-33.888;151.150;2023-02-28T16:15:41;8.55;;;3.00;;
44046;SDS011;29713;-33.888;151.150;2023-02-28T16:18:10;10.57;;;2.95;;
44046;SDS011;29713;-33.888;151.150;2023-02-28T16:20:38;6.80;;;3.20;;
44046;SDS011;29713;-33.888;151.150;2023-02-28T16:23:06;8.82;;;3.22;;
44046;SDS011;29713;-33.888;151.150;2023-02-28T16:25:38;8.50;;;2.58;;
44046;SDS011;29713;-33.888;151.150;2023-02-28T16:28:17;8.90;;;2.75;;
44046;SDS011;29713;-33.888;151.150;2023-02-28T16:31:02;8.55;;;2.90;;
44046;SDS011;29713;-33.888;151.150;2023-02-28T16:33:34;9.35;;;2.85;;
44046;SDS011;29713;-33.888;151.150;2023-02-28T16:36:01;5.55;;;2.75;;
44046;SDS011;29713;-33.888;151.150;2023-02-28T16:38:29;6.60;;;2.70;;
44046;SDS011;29713;-33.888;151.150;2023-02-28T16:40:57;4.55;;;2.30;;
44046;SDS011;29713;-33.888;151.150;2023-02-28T16:43:26;8.85;;;3.22;;
44046;SDS011;29713;-33.888;151.150;2023-02-28T16:45:57;6.78;;;2.97;;
44046;SDS011;29713;-33.888;151.150;2023-02-28T16:48:26;7.68;;;3.20;;
44046;SDS011;29713;-33.888;151.150;2023-02-28T16:50:55;9.13;;;3.00;;
44046;SDS011;29713;-33.888;151.150;2023-02-28T16:53:22;11.40;;;3.28;;
44046;SDS011;29713;-33.888;151.150;2023-02-28T16:55:49;5.68;;;2.60;;
44046;SDS011;29713;-33.888;151.150;2023-02-28T16:58:17;6.75;;;2.70;;
44046;SDS011;29713;-33.888;151.150;2023-02-28T17:00:47;7.75;;;3.08;;
44046;SDS011;29713;-33.888;151.150;2023-02-28T17:03:24;10.35;;;3.22;;
44046;SDS011;29713;-33.888;151.150;2023-02-28T17:05:53;10.30;;;2.95;;
44046;SDS011;29713;-33.888;151.150;2023-02-28T17:08:20;7.78;;;2.90;;
44046;SDS011;29713;-33.888;151.150;2023-02-28T17:10:48;7.05;;;3.17;;
44046;SDS011;29713;-33.888;151.150;2023-02-28T17:13:15;6.05;;;2.45;;
44046;SDS011;29713;-33.888;151.150;2023-02-28T17:15:42;7.80;;;3.33;;
44046;SDS011;29713;-33.888;151.150;2023-02-28T17:18:15;8.20;;;3.45;;
44046;SDS011;29713;-33.888;151.150;2023-02-28T17:20:45;9.07;;;3.35;;
44046;SDS011;29713;-33.888;151.150;2023-02-28T17:23:12;8.07;;;3.30;;
44046;SDS011;29713;-33.888;151.150;2023-02-28T17:25:40;12.57;;;3.70;;
44046;SDS011;29713;-33.888;151.150;2023-02-28T17:28:19;11.27;;;3.47;;
44046;SDS011;29713;-33.888;151.150;2023-02-28T17:30:47;10.77;;;3.55;;
44046;SDS011;29713;-33.888;151.150;2023-02-28T17:33:15;6.65;;;3.30;;
44046;SDS011;29713;-33.888;151.150;2023-02-28T17:35:42;8.07;;;3.50;;
44046;SDS011;29713;-33.888;151.150;2023-02-28T17:38:14;11.93;;;3.75;;
44046;SDS011;29713;-33.888;151.150;2023-02-28T17:40:43;10.82;;;4.00;;
44046;SDS011;29713;-33.888;151.150;2023-02-28T17:43:11;5.68;;;3.30;;
44046;SDS011;29713;-33.888;151.150;2023-02-28T17:45:40;7.43;;;3.35;;
44046;SDS011;29713;-33.888;151.150;2023-02-28T17:48:09;10.38;;;3.97;;
44046;SDS011;29713;-33.888;151.150;2023-02-28T17:50:38;16.05;;;4.15;;
44046;SDS011;29713;-33.888;151.150;2023-02-28T17:53:05;9.23;;;3.80;;
44046;SDS011;29713;-33.888;151.150;2023-02-28T17:55:33;10.98;;;3.80;;
44046;SDS011;29713;-33.888;151.150;2023-02-28T17:58:01;9.50;;;3.67;;